createdAt,value
2022-12-31T00:00:17.198Z,97986.16
2022-12-31T00:02:43.790Z,97963.56
2022-12-31T00:05:10.783Z,97974.50
2022-12-31T00:10:04.461Z,97973.34
2022-12-31T00:12:31.007Z,97963.22
2022-12-31T00:14:57.575Z,97960.53
2022-12-31T00:17:24.164Z,97967.53
2022-12-31T00:19:50.827Z,97959.72
2022-12-31T00:22:17.397Z,97950.75
2022-12-31T00:24:43.981Z,97960.50
2022-12-31T00:27:10.599Z,97952.31
2022-12-31T00:29:37.134Z,97972.47
2022-12-31T00:32:03.731Z,97969.00
2022-12-31T00:34:30.452Z,97953.81
2022-12-31T00:36:56.961Z,97966.34
2022-12-31T00:39:23.626Z,97960.84
2022-12-31T00:41:50.174Z,97963.06
2022-12-31T00:44:16.651Z,97956.47
2022-12-31T00:49:09.378Z,97962.78
2022-12-31T00:51:35.840Z,97960.47
2022-12-31T00:54:02.333Z,97965.13
2022-12-31T00:56:30.728Z,97969.75
2022-12-31T00:58:58.174Z,97970.53
2022-12-31T01:01:28.771Z,97967.00
2022-12-31T01:04:02.468Z,97962.78
2022-12-31T01:06:29.024Z,97965.84
2022-12-31T01:08:55.808Z,97977.16
2022-12-31T01:11:24.004Z,97984.16
2022-12-31T01:14:04.783Z,97984.56
2022-12-31T01:16:34.063Z,97976.00
2022-12-31T01:19:04.691Z,97986.13
2022-12-31T01:21:32.088Z,97990.09
2022-12-31T01:23:59.698Z,97989.34
2022-12-31T01:26:27.279Z,97991.69
2022-12-31T01:28:53.843Z,97998.75
2022-12-31T01:31:22.643Z,98007.72
2022-12-31T01:33:49.317Z,98002.69
2022-12-31T01:36:25.601Z,98001.94
2022-12-31T01:38:54.319Z,98008.22
2022-12-31T01:41:26.900Z,98011.75
2022-12-31T01:43:59.245Z,98015.28
2022-12-31T01:46:40.792Z,98021.50
2022-12-31T01:49:39.375Z,98016.84
2022-12-31T01:52:15.584Z,98028.84
2022-12-31T01:54:52.326Z,98019.88
2022-12-31T01:57:19.750Z,98020.69
2022-12-31T01:59:46.804Z,98018.38
2022-12-31T02:07:42.119Z,98014.50
2022-12-31T02:10:08.899Z,98023.84
2022-12-31T02:12:35.549Z,98024.63
2022-12-31T02:15:02.390Z,98028.53
2022-12-31T02:17:37.855Z,98030.88
2022-12-31T02:20:54.057Z,98042.56
2022-12-31T02:23:55.600Z,98036.75
2022-12-31T02:26:28.047Z,98030.13
2022-12-31T02:29:13.332Z,98032.47
2022-12-31T02:31:50.203Z,98030.50
2022-12-31T02:34:31.397Z,98025.06
2022-12-31T02:37:01.283Z,98028.56
2022-12-31T02:39:29.265Z,98029.34
2022-12-31T02:41:55.744Z,98030.13
2022-12-31T02:44:26.860Z,98033.22
2022-12-31T02:47:09.122Z,98031.28
2022-12-31T02:49:51.267Z,98037.88
2022-12-31T02:52:36.524Z,98044.50
2022-12-31T02:55:25.707Z,98043.72
2022-12-31T02:58:13.416Z,98033.19
2022-12-31T03:01:05.667Z,98039.41
2022-12-31T03:03:34.594Z,98038.63
2022-12-31T03:06:03.781Z,98041.66
2022-12-31T03:08:30.752Z,98035.06
2022-12-31T03:10:57.357Z,98039.31
2022-12-31T03:13:26.719Z,98035.41
2022-12-31T03:15:53.331Z,98041.19
2022-12-31T03:18:39.955Z,98044.63
2022-12-31T03:21:32.312Z,98046.94
2022-12-31T03:24:17.475Z,98040.72
2022-12-31T03:26:47.960Z,98037.63
2022-12-31T03:29:14.477Z,98041.09
2022-12-31T03:31:40.976Z,98041.09
2022-12-31T03:34:07.479Z,98046.53
2022-12-31T03:36:35.663Z,98041.47
2022-12-31T03:39:02.248Z,98049.19
2022-12-31T03:41:28.839Z,98046.47
2022-12-31T03:43:55.309Z,98053.81
2022-12-31T03:46:21.796Z,98057.66
2022-12-31T03:48:48.534Z,98065.03
2022-12-31T03:51:15.613Z,98051.06
2022-12-31T03:53:42.066Z,98067.28
2022-12-31T03:56:08.577Z,98058.28
2022-12-31T03:58:36.990Z,98061.28
2022-12-31T04:01:03.600Z,98054.19
2022-12-31T04:03:30.176Z,98050.22
2022-12-31T04:05:57.045Z,98054.78
2022-12-31T04:08:24.761Z,98057.81
2022-12-31T04:10:53.127Z,98060.84
2022-12-31T04:13:19.630Z,98058.50
2022-12-31T04:15:50.144Z,98069.72
2022-12-31T04:18:16.634Z,98057.38
2022-12-31T04:20:46.559Z,98064.25
2022-12-31T04:23:13.148Z,98058.41
2022-12-31T04:25:39.652Z,98054.84
2022-12-31T04:28:06.116Z,98069.09
2022-12-31T04:30:34.872Z,98070.47
2022-12-31T04:33:01.358Z,98075.78
2022-12-31T04:35:27.909Z,98087.63
2022-12-31T04:37:54.407Z,98084.06
2022-12-31T04:40:21.101Z,98075.91
2022-12-31T04:42:47.565Z,98065.03
2022-12-31T04:45:14.045Z,98071.97
2022-12-31T04:47:40.593Z,98068.44
2022-12-31T04:50:07.501Z,98080.03
2022-12-31T04:52:42.462Z,98075.03
2022-12-31T04:55:09.446Z,98076.22
2022-12-31T04:57:35.904Z,98081.69
2022-12-31T05:00:02.406Z,98088.28
2022-12-31T05:02:30.184Z,98084.78
2022-12-31T05:04:56.795Z,98085.91
2022-12-31T05:07:26.011Z,98086.22
2022-12-31T05:09:52.485Z,98087.38
2022-12-31T05:12:23.189Z,98090.44
2022-12-31T05:14:49.654Z,98090.81
2022-12-31T05:17:16.198Z,98096.16
2022-12-31T05:19:42.652Z,98093.38
2022-12-31T05:22:27.875Z,98095.31
2022-12-31T05:25:00.180Z,98099.44
2022-12-31T05:27:31.155Z,98093.94
2022-12-31T05:29:57.843Z,98098.94
2022-12-31T05:32:24.494Z,98092.38
2022-12-31T05:34:50.952Z,98091.25
2022-12-31T05:37:17.442Z,98089.69
2022-12-31T05:39:47.785Z,98087.41
2022-12-31T05:42:14.243Z,98085.06
2022-12-31T05:44:40.699Z,98097.09
2022-12-31T05:47:07.220Z,98093.94
2022-12-31T05:49:33.917Z,98103.25
2022-12-31T05:52:00.580Z,98104.47
2022-12-31T05:54:27.095Z,98114.00
2022-12-31T05:56:53.649Z,98115.41
2022-12-31T05:59:20.435Z,98120.72
2022-12-31T06:01:46.989Z,98122.56
2022-12-31T06:04:13.491Z,98136.47
2022-12-31T06:06:40.583Z,98132.16
2022-12-31T06:09:07.095Z,98127.09
2022-12-31T06:11:33.802Z,98130.56
2022-12-31T06:14:00.499Z,98119.41
2022-12-31T06:16:27.280Z,98122.09
2022-12-31T06:18:54.400Z,98122.09
2022-12-31T06:21:21.721Z,98129.91
2022-12-31T06:23:48.760Z,98123.41
2022-12-31T06:26:15.957Z,98134.28
2022-12-31T06:28:42.559Z,98124.31
2022-12-31T06:31:12.507Z,98128.16
2022-12-31T06:33:39.071Z,98140.09
2022-12-31T06:36:08.448Z,98141.97
2022-12-31T06:38:38.443Z,98135.69
2022-12-31T06:41:10.608Z,98116.34
2022-12-31T06:43:38.854Z,98122.84
2022-12-31T06:46:07.276Z,98123.56
2022-12-31T06:48:34.435Z,98125.84
2022-12-31T06:51:15.020Z,98136.22
2022-12-31T06:54:06.062Z,98153.94
2022-12-31T06:56:34.717Z,98153.09
2022-12-31T06:59:03.125Z,98164.22
2022-12-31T07:01:43.427Z,98177.66
2022-12-31T07:04:30.832Z,98179.09
2022-12-31T07:07:12.547Z,98179.50
2022-12-31T07:10:03.345Z,98171.53
2022-12-31T07:12:44.448Z,98179.72
2022-12-31T07:15:34.845Z,98178.88
2022-12-31T07:18:26.048Z,98167.84
2022-12-31T07:20:52.887Z,98169.59
2022-12-31T07:23:19.779Z,98175.56
2022-12-31T07:25:55.365Z,98180.06
2022-12-31T07:28:36.217Z,98177.22
2022-12-31T07:31:11.718Z,98174.47
2022-12-31T07:33:45.059Z,98180.00
2022-12-31T07:36:29.716Z,98176.84
2022-12-31T07:39:04.929Z,98179.09
2022-12-31T07:41:49.903Z,98189.25
2022-12-31T07:44:45.576Z,98187.81
2022-12-31T07:47:30.558Z,98189.44
2022-12-31T07:49:57.990Z,98195.63
2022-12-31T07:52:27.139Z,98191.13
2022-12-31T07:54:53.627Z,98194.97
2022-12-31T07:57:21.559Z,98195.25
2022-12-31T08:00:05.114Z,98198.41
2022-12-31T08:03:11.949Z,98198.97
2022-12-31T08:05:38.358Z,98201.13
2022-12-31T08:08:32.796Z,98202.75
2022-12-31T08:11:18.112Z,98199.09
2022-12-31T08:13:45.762Z,98185.22
2022-12-31T08:16:14.162Z,98202.97
2022-12-31T08:18:41.092Z,98189.19
2022-12-31T08:21:21.513Z,98189.28
2022-12-31T08:24:17.173Z,98194.34
2022-12-31T08:26:53.350Z,98186.22
2022-12-31T08:30:01.266Z,98183.13
2022-12-31T08:32:41.549Z,98185.09
2022-12-31T08:35:25.455Z,98182.44
2022-12-31T08:38:16.920Z,98193.69
2022-12-31T08:41:25.373Z,98190.97
2022-12-31T08:46:34.554Z,98201.78
2022-12-31T08:49:01.345Z,98200.59
2022-12-31T08:51:28.142Z,98201.00
2022-12-31T08:53:55.407Z,98211.13
2022-12-31T08:56:42.806Z,98204.56
2022-12-31T08:59:41.421Z,98200.19
2022-12-31T09:02:08.074Z,98204.47
2022-12-31T09:04:50.032Z,98191.03
2022-12-31T09:07:22.631Z,98190.59
2022-12-31T09:10:04.461Z,98195.66
2022-12-31T09:12:37.253Z,98204.31
2022-12-31T09:15:25.220Z,98193.78
2022-12-31T09:17:52.507Z,98185.97
2022-12-31T09:20:42.807Z,98194.22
2022-12-31T09:23:11.125Z,98193.59
2022-12-31T09:25:46.158Z,98190.81
2022-12-31T09:28:35.368Z,98198.22
2022-12-31T09:31:45.414Z,98186.06
2022-12-31T09:34:31.076Z,98184.94
2022-12-31T09:37:25.380Z,98182.88
2022-12-31T09:39:54.793Z,98195.28
2022-12-31T09:42:33.419Z,98187.97
2022-12-31T09:45:37.546Z,98200.75
2022-12-31T09:48:16.903Z,98184.78
2022-12-31T09:50:50.624Z,98184.25
2022-12-31T09:53:18.964Z,98191.69
2022-12-31T09:55:49.724Z,98195.53
2022-12-31T09:58:30.205Z,98190.09
2022-12-31T10:01:06.807Z,98188.53
2022-12-31T10:03:50.803Z,98186.22
2022-12-31T10:06:45.599Z,98194.03
2022-12-31T10:09:53.564Z,98186.22
2022-12-31T10:12:41.838Z,98178.13
2022-12-31T10:15:47.377Z,98181.63
2022-12-31T10:18:39.193Z,98182.81
2022-12-31T10:21:26.262Z,98169.22
2022-12-31T10:24:18.310Z,98169.97
2022-12-31T10:27:02.637Z,98171.50
2022-12-31T10:29:47.854Z,98159.81
2022-12-31T10:32:18.037Z,98155.94
2022-12-31T10:34:57.832Z,98141.13
2022-12-31T10:37:51.139Z,98139.53
2022-12-31T10:41:01.271Z,98139.16
2022-12-31T10:44:01.530Z,98136.44
2022-12-31T10:46:58.051Z,98139.09
2022-12-31T10:50:03.681Z,98112.19
2022-12-31T10:53:07.577Z,98115.31
2022-12-31T10:55:55.930Z,98110.63
2022-12-31T10:58:52.445Z,98099.66
2022-12-31T11:01:40.878Z,98110.69
2022-12-31T11:04:19.962Z,98100.53
2022-12-31T11:07:03.658Z,98099.41
2022-12-31T11:09:53.680Z,98097.81
2022-12-31T11:12:47.058Z,98091.09
2022-12-31T11:15:18.795Z,98087.88
2022-12-31T11:17:50.261Z,98080.09
2022-12-31T11:20:27.397Z,98080.22
2022-12-31T11:23:12.640Z,98071.88
2022-12-31T11:25:47.127Z,98076.53
2022-12-31T11:28:30.640Z,98072.28
2022-12-31T11:31:18.609Z,98068.72
2022-12-31T11:34:13.639Z,98061.28
2022-12-31T11:36:52.160Z,98077.31
2022-12-31T11:39:35.584Z,98062.56
2022-12-31T11:42:20.906Z,98059.88
2022-12-31T11:44:55.469Z,98057.53
2022-12-31T11:47:24.649Z,98053.31
2022-12-31T11:50:27.515Z,98053.72
2022-12-31T11:53:30.953Z,98049.44
2022-12-31T11:56:14.432Z,98047.91
2022-12-31T11:58:46.914Z,98051.41
2022-12-31T12:01:26.760Z,98042.84
2022-12-31T12:03:57.128Z,98036.19
2022-12-31T12:06:28.292Z,98051.78
2022-12-31T12:08:59.869Z,98043.22
2022-12-31T12:11:30.525Z,98029.22
2022-12-31T12:13:57.071Z,98026.84
2022-12-31T12:16:25.769Z,98022.94
2022-12-31T12:19:07.313Z,98018.31
2022-12-31T12:21:34.154Z,98012.50
2022-12-31T12:24:03.798Z,98014.41
2022-12-31T12:26:35.387Z,98019.06
2022-12-31T12:29:16.789Z,98007.38
2022-12-31T12:31:56.622Z,98010.44
2022-12-31T12:34:34.218Z,98009.31
2022-12-31T12:37:01.532Z,98015.13
2022-12-31T12:39:35.014Z,98008.19
2022-12-31T12:42:08.063Z,98002.75
2022-12-31T12:44:35.910Z,97998.47
2022-12-31T12:47:05.539Z,98010.91
2022-12-31T12:49:39.852Z,98002.38
2022-12-31T12:52:28.053Z,98002.00
2022-12-31T12:55:14.550Z,98012.88
2022-12-31T12:58:02.568Z,97996.19
2022-12-31T13:00:48.303Z,97995.38
2022-12-31T13:04:32.021Z,97995.41
2022-12-31T13:06:56.854Z,97984.53
2022-12-31T13:09:54.275Z,97983.75
2022-12-31T13:12:56.805Z,97989.22
2022-12-31T13:15:41.784Z,97990.41
2022-12-31T13:18:22.167Z,97991.16
2022-12-31T13:21:07.723Z,97985.72
2022-12-31T13:23:56.943Z,97990.41
2022-12-31T13:26:28.505Z,97991.19
2022-12-31T13:28:57.880Z,97995.09
2022-12-31T13:31:31.855Z,97995.88
2022-12-31T13:34:07.275Z,97990.84
2022-12-31T13:36:38.257Z,97988.91
2022-12-31T13:39:12.535Z,97995.91
2022-12-31T13:41:46.121Z,97997.06
2022-12-31T13:44:25.128Z,97996.69
2022-12-31T13:47:10.095Z,97983.47
2022-12-31T13:49:48.776Z,97994.75
2022-12-31T13:52:27.473Z,97988.16
2022-12-31T13:55:18.931Z,97988.94
2022-12-31T13:57:50.703Z,98006.03
2022-12-31T14:00:32.317Z,98000.59
2022-12-31T14:03:02.749Z,98006.06
2022-12-31T14:05:37.052Z,98010.69
2022-12-31T14:08:05.999Z,98001.00
2022-12-31T14:11:12.772Z,98022.00
2022-12-31T14:13:58.004Z,98023.13
2022-12-31T14:16:39.420Z,98013.03
2022-12-31T14:19:31.146Z,98012.22
2022-12-31T14:21:59.839Z,98011.84
2022-12-31T14:24:43.118Z,98014.56
2022-12-31T14:27:16.998Z,98020.41
2022-12-31T14:30:01.681Z,98023.91
2022-12-31T14:32:56.358Z,98020.41
2022-12-31T14:35:32.759Z,98020.81
2022-12-31T14:38:16.324Z,98026.22
2022-12-31T14:41:12.311Z,98013.81
2022-12-31T14:43:50.782Z,98025.84
2022-12-31T14:46:44.480Z,98024.28
2022-12-31T14:49:50.063Z,98025.47
2022-12-31T14:52:16.484Z,98015.34
2022-12-31T14:54:43.014Z,98028.56
2022-12-31T14:58:01.755Z,98035.16
2022-12-31T15:00:30.081Z,98039.03
2022-12-31T15:03:22.883Z,98039.03
2022-12-31T15:05:56.229Z,98037.50
2022-12-31T15:08:40.941Z,98052.63
2022-12-31T15:11:13.547Z,98044.44
2022-12-31T15:13:58.474Z,98047.91
2022-12-31T15:16:48.583Z,98055.31
2022-12-31T15:19:39.076Z,98057.25
2022-12-31T15:22:08.549Z,98050.25
2022-12-31T15:24:35.578Z,98055.28
2022-12-31T15:27:05.257Z,98052.53
2022-12-31T15:29:41.868Z,98052.53
2022-12-31T15:32:17.885Z,98056.00
2022-12-31T15:34:44.710Z,98055.22
2022-12-31T15:37:31.697Z,98061.81
2022-12-31T15:40:19.456Z,98071.09
2022-12-31T15:42:55.709Z,98069.91
2022-12-31T15:45:32.743Z,98076.84
2022-12-31T15:48:01.900Z,98066.38
2022-12-31T15:50:29.668Z,98081.09
2022-12-31T15:52:58.691Z,98077.22
2022-12-31T15:55:37.749Z,98076.44
2022-12-31T15:58:11.232Z,98087.69
2022-12-31T16:00:54.266Z,98081.84
2022-12-31T16:03:27.164Z,98072.53
2022-12-31T16:06:08.787Z,98085.72
2022-12-31T16:08:36.037Z,98084.56
2022-12-31T16:11:07.428Z,98079.50
2022-12-31T16:13:39.149Z,98075.22
2022-12-31T16:16:27.646Z,98079.50
2022-12-31T16:18:54.791Z,98094.59
2022-12-31T16:21:33.371Z,98089.56
2022-12-31T16:24:05.928Z,98087.16
2022-12-31T16:27:18.993Z,98093.75
2022-12-31T16:29:55.488Z,98100.38
2022-12-31T16:32:28.075Z,98100.34
2022-12-31T16:34:54.891Z,98099.53
2022-12-31T16:37:23.467Z,98104.16
2022-12-31T16:39:56.107Z,98104.94
2022-12-31T16:42:24.895Z,98104.09
2022-12-31T16:44:53.317Z,98109.88
2022-12-31T16:47:35.884Z,98108.69
2022-12-31T16:50:14.012Z,98107.16
2022-12-31T16:52:43.105Z,98106.34
2022-12-31T16:55:19.304Z,98098.59
2022-12-31T16:58:00.060Z,98113.31
2022-12-31T17:00:29.037Z,98100.09
2022-12-31T17:03:17.765Z,98109.34
2022-12-31T17:06:14.802Z,98113.16
2022-12-31T17:08:54.835Z,98103.44
2022-12-31T17:11:36.330Z,98097.63
2022-12-31T17:14:05.853Z,98101.50
2022-12-31T17:16:38.559Z,98109.53
2022-12-31T17:19:05.137Z,98107.56
2022-12-31T17:21:32.752Z,98119.16
2022-12-31T17:24:06.048Z,98110.22
2022-12-31T17:26:34.831Z,98107.09
2022-12-31T17:29:03.911Z,98111.69
2022-12-31T17:31:36.506Z,98111.69
2022-12-31T17:34:15.173Z,98103.13
2022-12-31T17:36:54.254Z,98109.34
2022-12-31T17:39:23.155Z,98099.31
2022-12-31T17:41:52.725Z,98100.41
2022-12-31T17:44:22.480Z,98105.00
2022-12-31T17:46:57.895Z,98108.47
2022-12-31T17:49:30.292Z,98112.75
2022-12-31T17:51:57.127Z,98112.38
2022-12-31T17:54:23.581Z,98114.38
2022-12-31T17:56:55.119Z,98122.88
2022-12-31T17:59:24.121Z,98114.41
2022-12-31T18:01:53.067Z,98122.97
2022-12-31T18:04:20.816Z,98126.81
2022-12-31T18:06:47.328Z,98127.19
2022-12-31T18:09:15.918Z,98123.69
2022-12-31T18:11:42.676Z,98124.34
2022-12-31T18:14:13.760Z,98123.09
2022-12-31T18:16:40.425Z,98117.28
2022-12-31T18:19:23.588Z,98117.28
2022-12-31T18:22:00.679Z,98122.69
2022-12-31T18:24:27.182Z,98118.03
2022-12-31T18:26:53.919Z,98114.56
2022-12-31T18:29:22.522Z,98128.50
2022-12-31T18:31:49.817Z,98115.00
2022-12-31T18:34:18.455Z,98125.09
2022-12-31T18:36:46.057Z,98123.97
2022-12-31T18:39:14.867Z,98118.16
2022-12-31T18:41:45.883Z,98117.72
2022-12-31T18:44:14.345Z,98118.09
2022-12-31T18:46:41.468Z,98123.22
2022-12-31T18:49:10.424Z,98123.66
2022-12-31T18:51:41.130Z,98128.25
2022-12-31T18:54:11.172Z,98133.22
2022-12-31T18:56:43.258Z,98125.06
2022-12-31T18:59:13.716Z,98130.56
2022-12-31T19:01:42.818Z,98129.44
2022-12-31T19:04:19.949Z,98128.69
2022-12-31T19:06:49.711Z,98133.38
2022-12-31T19:09:43.965Z,98126.00
2022-12-31T19:12:05.267Z,98132.94
2022-12-31T19:14:32.180Z,98127.94
2022-12-31T19:19:25.739Z,98136.75
2022-12-31T19:21:52.249Z,98137.56
2022-12-31T19:24:21.658Z,98135.94
2022-12-31T19:26:48.869Z,98136.25
2022-12-31T19:29:23.557Z,98146.31
2022-12-31T19:31:50.422Z,98150.53
2022-12-31T19:34:18.967Z,98148.13
2022-12-31T19:36:45.970Z,98156.56
2022-12-31T19:39:18.026Z,98157.31
2022-12-31T19:41:45.439Z,98160.00
2022-12-31T19:44:19.729Z,98157.25
2022-12-31T19:46:46.978Z,98153.34
2022-12-31T19:49:16.580Z,98148.63
2022-12-31T19:51:43.313Z,98146.25
2022-12-31T19:54:12.529Z,98148.53
2022-12-31T19:56:39.051Z,98141.19
2022-12-31T19:59:07.293Z,98150.81
2022-12-31T20:01:33.927Z,98157.34
2022-12-31T20:04:00.917Z,98149.22
2022-12-31T20:06:27.550Z,98149.88
2022-12-31T20:08:54.062Z,98151.81
2022-12-31T20:11:23.845Z,98160.63
2022-12-31T20:13:52.642Z,98147.38
2022-12-31T20:16:21.352Z,98156.97
2022-12-31T20:18:48.755Z,98160.34
2022-12-31T20:21:26.912Z,98154.81
2022-12-31T20:23:54.636Z,98158.53
2022-12-31T20:26:23.984Z,98149.59
2022-12-31T20:28:51.104Z,98146.78
2022-12-31T20:31:20.374Z,98157.59
2022-12-31T20:33:47.037Z,98154.53
2022-12-31T20:36:16.478Z,98149.13
2022-12-31T20:38:43.544Z,98149.91
2022-12-31T20:41:13.152Z,98145.63
2022-12-31T20:43:40.705Z,98152.56
2022-12-31T20:46:14.904Z,98153.72
2022-12-31T20:48:43.339Z,98151.47
2022-12-31T20:51:11.688Z,98142.91
2022-12-31T20:53:38.472Z,98151.88
2022-12-31T20:56:06.436Z,98156.56
2022-12-31T20:58:35.053Z,98153.81
2022-12-31T21:01:05.109Z,98167.25
2022-12-31T21:06:18.841Z,98181.13
2022-12-31T21:08:45.521Z,98176.72
2022-12-31T21:11:32.410Z,98170.22
2022-12-31T21:13:59.972Z,98176.88
2022-12-31T21:16:27.636Z,98184.81
2022-12-31T21:18:54.831Z,98179.63
2022-12-31T21:21:21.780Z,98180.13
2022-12-31T21:23:50.109Z,98179.09
2022-12-31T21:26:17.014Z,98190.03
2022-12-31T21:28:46.023Z,98179.41
2022-12-31T21:31:14.797Z,98187.00
2022-12-31T21:33:48.107Z,98189.97
2022-12-31T21:36:16.046Z,98195.63
2022-12-31T21:38:43.627Z,98201.63
2022-12-31T21:41:33.632Z,98199.47
2022-12-31T21:44:03.945Z,98205.41
2022-12-31T21:46:30.680Z,98214.09
2022-12-31T21:48:58.514Z,98226.97
2022-12-31T21:51:31.487Z,98236.41
2022-12-31T21:54:00.331Z,98245.72
2022-12-31T21:56:26.931Z,98243.78
2022-12-31T21:59:14.798Z,98251.47
2022-12-31T22:02:00.072Z,98261.16
2022-12-31T22:05:01.468Z,98270.84
2022-12-31T22:07:15.861Z,98280.94
2022-12-31T22:09:42.416Z,98285.00
2022-12-31T22:12:09.097Z,98287.03
2022-12-31T22:14:35.692Z,98288.47
2022-12-31T22:17:02.232Z,98304.97
2022-12-31T22:19:28.807Z,98306.75
2022-12-31T22:21:55.414Z,98309.44
2022-12-31T22:24:22.043Z,98313.50
2022-12-31T22:26:48.599Z,98304.84
2022-12-31T22:29:15.174Z,98308.31
2022-12-31T22:31:41.777Z,98298.81
2022-12-31T22:34:08.419Z,98304.06
2022-12-31T22:36:35.175Z,98299.56
2022-12-31T22:39:02.034Z,98302.94
2022-12-31T22:41:29.102Z,98303.16
2022-12-31T22:44:03.648Z,98317.28
2022-12-31T22:46:32.091Z,98319.53
2022-12-31T22:49:00.219Z,98332.97
2022-12-31T22:51:57.471Z,98317.28
2022-12-31T22:54:21.232Z,98323.66
2022-12-31T22:56:47.762Z,98320.94
2022-12-31T22:59:14.331Z,98327.09
2022-12-31T23:01:40.879Z,98319.69
2022-12-31T23:04:07.706Z,98328.88
2022-12-31T23:06:43.661Z,98325.78
2022-12-31T23:09:30.636Z,98317.81
2022-12-31T23:12:00.639Z,98320.94
2022-12-31T23:14:46.227Z,98320.19
2022-12-31T23:17:36.941Z,98324.66
2022-12-31T23:20:24.609Z,98334.88
2022-12-31T23:23:09.919Z,98336.34
2022-12-31T23:25:42.792Z,98337.47
2022-12-31T23:28:12.544Z,98352.03
2022-12-31T23:30:40.539Z,98344.63
2022-12-31T23:33:07.992Z,98341.50
2022-12-31T23:35:34.753Z,98331.75
2022-12-31T23:38:01.290Z,98338.34
2022-12-31T23:40:34.454Z,98351.03
2022-12-31T23:43:06.872Z,98352.16
2022-12-31T23:45:34.495Z,98351.72
2022-12-31T23:48:01.089Z,98353.94
2022-12-31T23:50:27.632Z,98339.25
2022-12-31T23:52:56.588Z,98341.94
2022-12-31T23:55:25.384Z,98338.59
2022-12-31T23:57:51.872Z,98334.09
